Time;durP1;ratioP1;P1;durP2;ratioP2;P2;SDS_P1;SDS_P2;PMS_P1;PMS_P2;Temp;Humidity;BMP_temperature;BMP_pressure;BME280_temperature;BME280_humidity;BME280_pressure;Samples;Min_cycle;Max_cycle;Signal;HPM_P1;HPM_P2
2024/04/01 00:02:04;;;;;;;8.38;4.28;;;;;;;17.72;68.01;99873.81;5078190;28;20227;-63
2024/04/01 00:04:30;;;;;;;10.38;4.63;;;;;;;17.51;68.47;99872.06;5077835;28;20048;-62
2024/04/01 00:06:55;;;;;;;7.80;4.10;;;;;;;17.47;67.95;99867.34;5078367;28;20364;-63
2024/04/01 00:09:21;;;;;;;14.23;4.63;;;;;;;17.48;66.97;99867.13;5083377;28;20090;-63
2024/04/01 00:11:46;;;;;;;7.68;4.43;;;;;;;17.35;67.98;99864.44;5097188;28;20081;-62
2024/04/01 00:14:12;;;;;;;7.82;4.55;;;;;;;17.29;68.21;99872.44;5097928;28;20124;-63
2024/04/01 00:16:37;;;;;;;10.20;4.93;;;;;;;17.27;68.08;99869.97;5097394;28;20039;-62
2024/04/01 00:19:04;;;;;;;12.38;4.43;;;;;;;17.10;70.45;99874.03;5099029;28;20050;-62
2024/04/01 00:21:30;;;;;;;8.10;4.22;;;;;;;17.03;70.90;99875.88;5077250;28;20199;-63
2024/04/01 00:23:56;;;;;;;8.38;3.92;;;;;;;17.06;71.70;99868.28;5079001;28;20043;-63
2024/04/01 00:26:22;;;;;;;8.93;4.40;;;;;;;16.89;72.21;99872.31;5093683;28;20032;-62
2024/04/01 00:28:48;;;;;;;7.40;3.63;;;;;;;16.72;73.45;99858.47;5098212;28;20062;-63
2024/04/01 00:31:13;;;;;;;10.40;4.70;;;;;;;16.88;72.95;99858.13;5096443;28;20092;-63
2024/04/01 00:33:39;;;;;;;5.95;4.10;;;;;;;16.94;72.08;99866.38;5098079;28;20077;-63
2024/04/01 00:36:05;;;;;;;9.30;4.28;;;;;;;16.94;72.43;99866.38;5096871;28;20039;-62
2024/04/01 00:38:30;;;;;;;10.63;4.57;;;;;;;16.91;72.75;99867.59;5097936;28;20044;-63
2024/04/01 00:40:55;;;;;;;7.10;4.13;;;;;;;16.95;73.14;99881.41;5097353;28;20055;-63
2024/04/01 00:43:21;;;;;;;7.78;3.97;;;;;;;16.99;72.82;99871.94;5098295;28;20038;-63
2024/04/01 00:45:48;;;;;;;8.80;4.47;;;;;;;17.09;72.20;99870.53;5097685;28;20298;-63
2024/04/01 00:48:15;;;;;;;9.93;5.07;;;;;;;17.17;71.87;99875.72;5097432;28;20051;-62
2024/04/01 00:50:47;;;;;;;7.95;4.18;;;;;;;17.27;71.42;99880.69;5095147;28;20028;-62
2024/04/01 00:53:14;;;;;;;10.88;4.57;;;;;;;17.16;71.16;99879.41;5076922;28;20055;-63
2024/04/01 00:55:42;;;;;;;9.80;4.70;;;;;;;17.13;71.74;99877.13;5076851;28;20247;-63
2024/04/01 00:58:09;;;;;;;9.77;4.82;;;;;;;17.25;71.67;99877.38;5096763;28;20322;-63
2024/04/01 01:00:35;;;;;;;9.65;4.57;;;;;;;17.28;71.38;99882.31;5098286;28;20028;-62
2024/04/01 01:03:01;;;;;;;8.85;4.50;;;;;;;17.18;71.60;99879.22;5096440;28;20038;-63
2024/04/01 01:05:28;;;;;;;10.55;4.93;;;;;;;17.22;71.81;99880.47;5098628;28;20322;-62
2024/04/01 01:07:54;;;;;;;12.00;5.38;;;;;;;17.20;71.05;99882.50;5080672;28;20024;-63
2024/04/01 01:10:21;;;;;;;11.35;4.43;;;;;;;17.21;70.80;99881.47;5077643;28;20081;-63
2024/04/01 01:12:46;;;;;;;11.07;4.55;;;;;;;17.21;70.80;99882.31;5087729;28;20046;-63
2024/04/01 01:15:12;;;;;;;11.98;4.65;;;;;;;17.20;70.61;99887.88;5097685;28;20103;-63
2024/04/01 01:17:38;;;;;;;9.60;4.65;;;;;;;17.22;70.41;99891.97;5087493;28;20044;-62
2024/04/01 01:20:11;;;;;;;8.00;4.20;;;;;;;16.91;71.25;99889.00;5077473;28;20049;-63
2024/04/01 01:22:40;;;;;;;7.50;4.27;;;;;;;16.94;71.21;99891.28;5076555;28;20048;-62
2024/04/01 01:25:07;;;;;;;8.40;4.32;;;;;;;16.94;70.91;99891.28;5077282;28;20230;-63
2024/04/01 01:27:42;;;;;;;8.05;4.72;;;;;;;16.78;70.63;99891.59;5076676;28;20098;-62
2024/04/01 01:30:15;;;;;;;12.60;4.60;;;;;;;16.80;70.55;99890.38;5077468;28;20040;-63
2024/04/01 01:32:42;;;;;;;11.65;4.55;;;;;;;16.69;70.88;99892.81;5081167;28;20036;-62
2024/04/01 01:35:08;;;;;;;12.18;4.95;;;;;;;16.68;71.49;99889.31;5096757;28;20078;-63
2024/04/01 01:37:35;;;;;;;12.18;5.53;;;;;;;16.72;70.93;99889.72;5095163;28;20103;-62
2024/04/01 01:40:01;;;;;;;7.82;4.78;;;;;;;16.57;71.49;99890.63;5076425;28;20057;-63
2024/04/01 01:42:26;;;;;;;7.30;4.57;;;;;;;16.65;71.53;99886.16;5077773;28;20319;-62
2024/04/01 01:44:52;;;;;;;11.43;5.18;;;;;;;16.60;71.37;99878.72;5094188;28;20234;-63
2024/04/01 01:47:17;;;;;;;13.93;4.88;;;;;;;16.61;71.99;99886.53;5097056;28;20043;-63
2024/04/01 01:49:43;;;;;;;10.75;4.78;;;;;;;16.60;71.63;99890.22;5096046;28;20113;-64
2024/04/01 01:52:08;;;;;;;7.35;4.43;;;;;;;16.28;73.06;99896.19;5097193;28;20108;-64
2024/04/01 01:54:34;;;;;;;11.65;4.90;;;;;;;16.45;72.14;99892.19;5095834;28;20044;-63
2024/04/01 01:56:59;;;;;;;10.23;5.00;;;;;;;16.54;71.23;99900.88;5097127;28;20226;-63
2024/04/01 01:59:25;;;;;;;12.15;4.53;;;;;;;16.55;70.90;99897.19;5096589;28;20036;-63
2024/04/01 02:01:50;;;;;;;10.02;4.22;;;;;;;16.61;70.71;99897.22;5096789;28;20256;-63
2024/04/01 02:04:16;;;;;;;13.10;4.90;;;;;;;16.66;70.27;99885.19;5096755;28;20345;-63
2024/04/01 02:06:41;;;;;;;8.60;4.82;;;;;;;16.61;70.09;99893.72;5096480;28;20157;-63
2024/04/01 02:09:08;;;;;;;11.30;5.38;;;;;;;16.51;70.75;99888.75;5097072;28;20048;-63
2024/04/01 02:11:33;;;;;;;9.18;4.45;;;;;;;16.57;71.05;99893.28;5096727;28;20085;-63
2024/04/01 02:13:59;;;;;;;11.50;4.45;;;;;;;16.56;71.30;99890.81;5095919;28;20051;-63
2024/04/01 02:16:24;;;;;;;8.15;4.60;;;;;;;16.37;71.68;99891.53;5076235;28;20355;-63
2024/04/01 02:18:50;;;;;;;12.85;4.40;;;;;;;16.45;71.98;99897.53;5077615;28;20040;-63
2024/04/01 02:21:18;;;;;;;24.05;6.38;;;;;;;16.51;71.49;99890.59;5096837;28;20043;-63
2024/04/01 02:23:44;;;;;;;8.10;4.38;;;;;;;16.50;70.29;99900.44;5101207;28;20242;-63
2024/04/01 02:26:10;;;;;;;11.65;4.72;;;;;;;16.47;70.51;99903.50;5099443;28;20576;-63
2024/04/01 02:28:35;;;;;;;10.60;4.78;;;;;;;16.49;70.45;99888.09;5100566;28;20036;-63
2024/04/01 02:31:01;;;;;;;15.20;4.90;;;;;;;16.55;70.27;99889.16;5098915;28;20036;-63
2024/04/01 02:33:27;;;;;;;9.05;5.50;;;;;;;16.54;68.85;99880.31;5100511;28;20059;-63
2024/04/01 02:35:53;;;;;;;14.18;4.70;;;;;;;16.52;68.70;99886.88;5099455;28;20040;-63
2024/04/01 02:38:19;;;;;;;10.98;5.45;;;;;;;16.39;70.04;99887.63;5100318;28;20047;-63
2024/04/01 02:40:46;;;;;;;11.50;4.90;;;;;;;16.10;71.10;99894.00;5099459;28;20036;-63
2024/04/01 02:43:12;;;;;;;15.85;5.05;;;;;;;16.23;70.71;99886.09;5099942;28;20115;-64
2024/04/01 02:45:39;;;;;;;10.27;4.70;;;;;;;16.32;70.22;99884.09;5099822;28;20020;-63
2024/04/01 02:48:05;;;;;;;10.63;5.00;;;;;;;16.39;69.83;99886.81;5099446;28;20051;-63
2024/04/01 02:50:31;;;;;;;10.50;5.22;;;;;;;16.38;69.44;99888.66;5099959;28;20069;-62
2024/04/01 02:52:58;;;;;;;9.75;4.90;;;;;;;16.33;69.32;99880.41;5099214;28;20156;-63
2024/04/01 02:55:23;;;;;;;9.65;4.75;;;;;;;16.23;69.73;99883.41;5100749;28;20035;-63
2024/04/01 02:57:49;;;;;;;11.07;4.60;;;;;;;16.21;69.88;99882.78;5097634;28;20024;-63
2024/04/01 03:00:17;;;;;;;10.57;4.63;;;;;;;16.13;69.59;99863.41;5100398;28;20020;-63
2024/04/01 03:02:47;;;;;;;8.77;4.68;;;;;;;16.12;69.71;99883.97;5098428;28;20211;-63
2024/04/01 03:05:17;;;;;;;6.68;4.68;;;;;;;16.18;68.80;99877.84;5100031;28;20036;-63
2024/04/01 03:07:43;;;;;;;14.88;4.90;;;;;;;16.21;69.13;99874.78;5098336;28;20040;-63
2024/04/01 03:10:12;;;;;;;13.63;5.57;;;;;;;16.16;69.75;99863.84;5100183;28;20048;-63
2024/04/01 03:12:41;;;;;;;10.05;4.28;;;;;;;16.19;69.41;99867.97;5098893;28;20058;-63
2024/04/01 03:15:08;;;;;;;10.48;4.45;;;;;;;16.17;68.83;99859.34;5099651;28;20040;-63
2024/04/01 03:17:34;;;;;;;12.48;5.57;;;;;;;16.12;69.53;99856.41;5098717;28;20042;-63
2024/04/01 03:19:59;;;;;;;17.88;5.47;;;;;;;15.98;69.61;99868.84;5100171;28;20036;-63
2024/04/01 03:22:26;;;;;;;9.27;4.80;;;;;;;16.05;69.01;99877.75;5098577;28;20057;-63
2024/04/01 03:24:52;;;;;;;7.90;4.68;;;;;;;16.12;68.14;99870.59;5099916;28;20278;-63
2024/04/01 03:27:17;;;;;;;11.32;4.65;;;;;;;15.99;66.50;99867.84;5098791;28;20027;-63
2024/04/01 03:29:43;;;;;;;13.02;4.60;;;;;;;16.06;67.25;99873.22;5097945;28;20040;-63
2024/04/01 03:32:09;;;;;;;12.27;5.85;;;;;;;15.95;67.69;99872.75;5098583;28;20063;-63
2024/04/01 03:34:35;;;;;;;14.13;5.57;;;;;;;15.61;67.07;99883.31;5098583;28;20322;-64
2024/04/01 03:37:02;;;;;;;13.07;7.97;;;;;;;15.43;66.46;99883.72;5099461;28;20027;-63
2024/04/01 03:39:29;;;;;;;15.48;5.47;;;;;;;15.31;68.31;99890.56;5097162;28;20056;-64
2024/04/01 03:41:55;;;;;;;13.18;4.78;;;;;;;15.16;68.87;99897.78;5099393;28;20039;-64
2024/04/01 03:44:21;;;;;;;15.30;5.53;;;;;;;15.09;70.43;99902.22;5083305;28;20048;-63
2024/04/01 03:46:46;;;;;;;12.45;5.13;;;;;;;15.08;70.89;99905.88;5079187;28;20112;-63
2024/04/01 03:49:12;;;;;;;17.05;5.25;;;;;;;15.06;71.95;99902.59;5089536;28;20299;-63
2024/04/01 03:51:37;;;;;;;11.05;4.78;;;;;;;15.08;72.58;99901.38;5098086;28;20035;-63
2024/04/01 03:54:03;;;;;;;10.25;4.70;;;;;;;15.01;73.10;99909.31;5097811;28;20043;-63
2024/04/01 03:56:29;;;;;;;16.88;4.78;;;;;;;15.00;74.01;99904.97;5098495;28;20043;-64
2024/04/01 03:58:56;;;;;;;18.13;5.03;;;;;;;15.01;73.83;99905.81;5097911;28;20349;-63
2024/04/01 04:01:21;;;;;;;17.42;5.20;;;;;;;15.13;73.42;99908.81;5097582;28;20032;-63
2024/04/01 04:03:47;;;;;;;18.83;5.63;;;;;;;15.21;73.09;99906.88;5097554;28;20062;-63
2024/04/01 04:06:12;;;;;;;17.70;6.18;;;;;;;15.24;73.13;99914.50;5097440;28;20048;-64
2024/04/01 04:08:38;;;;;;;16.33;5.22;;;;;;;15.31;73.20;99915.41;5097941;28;20031;-64
2024/04/01 04:11:07;;;;;;;13.30;4.88;;;;;;;15.32;73.15;99918.91;5094348;28;20341;-63
2024/04/01 04:13:38;;;;;;;12.77;4.65;;;;;;;15.42;72.21;99922.09;5077879;28;20103;-63
2024/04/01 04:16:04;;;;;;;15.95;5.00;;;;;;;15.30;72.01;99923.59;5078848;28;20039;-63
2024/04/01 04:18:29;;;;;;;12.07;4.45;;;;;;;15.19;72.54;99916.06;5097487;28;20265;-64
2024/04/01 04:20:55;;;;;;;15.85;4.93;;;;;;;15.30;72.49;99920.91;5099221;28;20067;-63
2024/04/01 04:23:22;;;;;;;13.75;4.32;;;;;;;15.38;72.20;99928.81;5096698;28;20044;-63
2024/04/01 04:25:48;;;;;;;29.05;6.43;;;;;;;15.46;71.21;99928.69;5098635;28;20016;-63
2024/04/01 04:28:13;;;;;;;9.40;4.38;;;;;;;15.32;70.99;99929.56;5080602;28;20064;-63
2024/04/01 04:30:39;;;;;;;10.75;3.55;;;;;;;15.20;71.94;99931.88;5078226;28;20043;-64
2024/04/01 04:33:05;;;;;;;13.55;4.13;;;;;;;15.27;71.52;99934.63;5077090;28;20090;-64
2024/04/01 04:35:30;;;;;;;9.18;3.92;;;;;;;15.35;71.17;99937.19;5077775;28;20063;-63
2024/04/01 04:37:56;;;;;;;11.20;4.57;;;;;;;15.40;71.26;99937.44;5085844;28;20058;-63
2024/04/01 04:40:22;;;;;;;19.90;6.60;;;;;;;15.47;70.94;99937.53;5098092;28;20052;-63
2024/04/01 04:42:47;;;;;;;11.50;5.53;;;;;;;15.40;71.79;99936.63;5089893;28;20381;-63
2024/04/01 04:45:13;;;;;;;16.38;4.57;;;;;;;15.48;71.16;99936.50;5077341;28;20040;-64
2024/04/01 04:47:38;;;;;;;12.10;4.47;;;;;;;15.50;68.56;99924.63;5086081;28;20344;-64
2024/04/01 04:50:04;;;;;;;13.40;3.97;;;;;;;15.57;68.12;99928.22;5096206;28;20036;-63
2024/04/01 04:52:29;;;;;;;10.25;4.15;;;;;;;15.63;68.46;99916.81;5096083;28;20180;-63
2024/04/01 04:54:55;;;;;;;13.95;4.18;;;;;;;15.64;68.90;99920.31;5096029;28;20028;-63
2024/04/01 04:57:20;;;;;;;15.30;4.47;;;;;;;15.69;69.24;99919.75;5097408;28;20337;-63
2024/04/01 04:59:48;;;;;;;8.27;4.22;;;;;;;15.69;69.08;99923.25;5095411;28;20093;-64
2024/04/01 05:02:13;;;;;;;11.45;4.15;;;;;;;15.71;69.37;99926.53;5097113;28;20036;-63
2024/04/01 05:04:39;;;;;;;12.85;4.47;;;;;;;15.78;69.68;99931.94;5095718;28;20044;-63
2024/04/01 05:07:04;;;;;;;14.43;5.05;;;;;;;15.81;70.38;99932.38;5096696;28;20040;-63
2024/04/01 05:09:30;;;;;;;17.77;5.28;;;;;;;15.89;70.67;99937.59;5095602;28;20063;-63
2024/04/01 05:11:56;;;;;;;15.02;5.30;;;;;;;15.85;71.17;99925.66;5096434;28;20043;-63
2024/04/01 05:14:22;;;;;;;80.13;12.45;;;;;;;15.86;72.91;99932.66;5096289;28;20319;-63
2024/04/01 05:16:56;;;;;;;168.05;19.75;;;;;;;15.98;72.09;99934.78;5096206;28;20028;-64
2024/04/01 05:19:22;;;;;;;69.82;9.77;;;;;;;16.08;71.71;99935.28;5096030;28;20326;-63
2024/04/01 05:21:48;;;;;;;48.58;9.18;;;;;;;16.10;71.49;99935.94;5096126;28;20043;-64
2024/04/01 05:24:15;;;;;;;36.22;7.30;;;;;;;16.22;72.32;99940.56;5095457;28;20078;-63
2024/04/01 05:26:41;;;;;;;17.50;6.75;;;;;;;16.25;72.09;99940.16;5096183;28;20152;-64
2024/04/01 05:29:07;;;;;;;19.77;6.30;;;;;;;16.24;72.76;99943.84;5097378;28;20046;-64
2024/04/01 05:31:33;;;;;;;29.85;6.93;;;;;;;16.23;73.33;99952.06;5095877;28;20506;-63
2024/04/01 05:33:59;;;;;;;43.85;8.55;;;;;;;16.32;72.21;99947.41;5097556;28;20470;-63
2024/04/01 05:36:27;;;;;;;16.90;5.90;;;;;;;16.28;71.86;99955.81;5095972;28;20083;-64
2024/04/01 05:38:53;;;;;;;16.23;5.97;;;;;;;16.30;72.26;99952.94;5097473;28;20036;-64
2024/04/01 05:41:19;;;;;;;30.90;7.80;;;;;;;16.33;72.27;99957.91;5095792;28;20221;-63
2024/04/01 05:43:45;;;;;;;44.05;8.70;;;;;;;16.48;72.27;99953.28;5096285;28;20058;-64
2024/04/01 05:46:10;;;;;;;23.17;8.18;;;;;;;16.57;70.72;99953.94;5082664;28;20035;-63
2024/04/01 05:48:36;;;;;;;16.88;6.50;;;;;;;16.78;71.43;99947.75;5077153;28;20045;-63
2024/04/01 05:51:02;;;;;;;14.68;5.90;;;;;;;16.84;70.61;99950.47;5086174;28;20032;-63
2024/04/01 05:53:27;;;;;;;15.00;6.85;;;;;;;17.09;69.60;99958.00;5098426;28;20040;-63
2024/04/01 05:55:53;;;;;;;21.70;7.55;;;;;;;17.23;68.06;99957.88;5092703;28;20032;-64
2024/04/01 05:58:18;;;;;;;21.63;6.28;;;;;;;17.41;67.62;99959.97;5079566;28;20044;-63
2024/04/01 06:00:44;;;;;;;17.15;6.20;;;;;;;17.61;67.79;99964.56;5084461;28;20208;-64
2024/04/01 06:03:09;;;;;;;12.90;6.63;;;;;;;17.72;66.96;99948.78;5100028;28;20298;-64
2024/04/01 06:05:35;;;;;;;19.30;6.90;;;;;;;17.79;67.49;99956.84;5099201;28;20073;-63
2024/04/01 06:08:00;;;;;;;16.15;6.93;;;;;;;17.99;66.00;99951.50;5099609;28;20047;-64
2024/04/01 06:10:29;;;;;;;18.38;6.72;;;;;;;18.30;65.08;99951.72;5100807;28;20065;-63
2024/04/01 06:12:54;;;;;;;14.60;7.13;;;;;;;18.54;64.81;99949.41;5098067;28;20044;-64
2024/04/01 06:15:23;;;;;;;17.23;7.95;;;;;;;18.63;63.39;99954.38;5100556;28;20238;-64
2024/04/01 06:17:50;;;;;;;18.30;8.20;;;;;;;18.64;62.60;99953.34;5099156;28;20356;-63
2024/04/01 06:20:16;;;;;;;16.65;7.28;;;;;;;18.73;62.48;99944.09;5099811;28;20271;-64
2024/04/01 06:22:41;;;;;;;19.60;8.07;;;;;;;18.83;62.10;99945.50;5096696;28;20040;-64
2024/04/01 06:25:07;;;;;;;12.57;7.10;;;;;;;18.78;62.26;99948.81;5099283;28;20040;-63
2024/04/01 06:27:33;;;;;;;15.43;6.45;;;;;;;18.97;62.58;99947.09;5097777;28;20342;-64
2024/04/01 06:29:59;;;;;;;13.55;6.63;;;;;;;19.05;61.10;99947.69;5099754;28;20417;-64
2024/04/01 06:32:24;;;;;;;15.88;5.78;;;;;;;19.11;61.39;99952.22;5098841;28;20343;-64
2024/04/01 06:34:51;;;;;;;13.98;6.28;;;;;;;18.99;62.32;99951.22;5098936;28;20040;-64
2024/04/01 06:37:17;;;;;;;13.18;6.00;;;;;;;18.99;61.72;99953.09;5098652;28;20043;-64
2024/04/01 06:39:42;;;;;;;13.75;5.70;;;;;;;19.05;61.23;99955.75;5098533;28;20036;-64
2024/04/01 06:42:08;;;;;;;14.93;5.80;;;;;;;19.19;60.69;99955.69;5098590;28;20409;-63
2024/04/01 06:44:33;;;;;;;18.08;6.80;;;;;;;19.33;59.97;99950.06;5098863;28;20100;-64
2024/04/01 06:46:59;;;;;;;13.85;7.00;;;;;;;19.56;59.36;99957.63;5099885;28;20038;-63
2024/04/01 06:49:24;;;;;;;11.93;5.95;;;;;;;19.62;59.37;99964.00;5098018;28;20040;-63
2024/04/01 06:51:50;;;;;;;48.95;9.27;;;;;;;19.77;58.80;99961.84;5099303;28;20134;-64
2024/04/01 06:54:15;;;;;;;20.50;8.88;;;;;;;19.98;58.58;99964.19;5097180;28;20277;-63
2024/04/01 06:56:41;;;;;;;15.10;7.75;;;;;;;20.09;57.87;99962.66;5099321;28;20261;-63
2024/04/01 06:59:06;;;;;;;18.33;8.43;;;;;;;20.27;57.64;99951.16;5098032;28;20047;-63
2024/04/01 07:01:32;;;;;;;14.38;6.97;;;;;;;20.49;56.90;99951.59;5098846;28;20039;-64
2024/04/01 07:03:57;;;;;;;13.75;7.10;;;;;;;20.50;56.90;99954.06;5097906;28;20036;-64
2024/04/01 07:06:23;;;;;;;12.05;6.95;;;;;;;20.58;57.33;99951.09;5097190;28;20111;-64
2024/04/01 07:08:48;;;;;;;20.48;7.07;;;;;;;20.72;56.17;99947.22;5098036;28;20123;-64
2024/04/01 07:11:14;;;;;;;15.98;6.70;;;;;;;20.89;56.52;99949.34;5098233;28;20043;-64
2024/04/01 07:13:39;;;;;;;14.38;6.93;;;;;;;20.69;56.45;99936.09;5097911;28;20036;-64
2024/04/01 07:16:05;;;;;;;20.80;8.55;;;;;;;20.91;56.29;99931.09;5097886;28;20036;-64
2024/04/01 07:18:33;;;;;;;13.80;7.40;;;;;;;20.66;56.96;99926.59;5097642;28;20047;-63
2024/04/01 07:20:58;;;;;;;16.05;8.73;;;;;;;20.56;58.29;99928.16;5097998;28;20036;-64
2024/04/01 07:23:24;;;;;;;17.20;7.25;;;;;;;20.56;58.25;99928.97;5099017;28;20039;-64
2024/04/01 07:25:50;;;;;;;14.13;7.03;;;;;;;20.97;58.61;99931.03;5097078;28;20032;-64
2024/04/01 07:28:16;;;;;;;15.68;7.40;;;;;;;21.35;56.79;99932.66;5098580;28;20073;-64
2024/04/01 07:30:42;;;;;;;15.10;7.00;;;;;;;21.55;56.65;99930.50;5096999;28;20254;-63
2024/04/01 07:33:08;;;;;;;12.27;6.05;;;;;;;21.88;54.83;99943.53;5098101;28;20058;-64
2024/04/01 07:35:34;;;;;;;12.15;5.40;;;;;;;22.05;53.21;99930.22;5097328;28;20097;-63
2024/04/01 07:37:59;;;;;;;10.52;5.32;;;;;;;22.32;52.46;99925.22;5098326;28;20278;-64
2024/04/01 07:40:26;;;;;;;10.95;5.18;;;;;;;22.53;51.82;99932.72;5097402;28;20318;-63
2024/04/01 07:42:52;;;;;;;12.75;7.50;;;;;;;22.83;52.02;99929.06;5097571;28;20257;-64
2024/04/01 07:45:17;;;;;;;17.85;10.13;;;;;;;22.90;50.86;99932.50;5097347;28;20040;-64
2024/04/01 07:47:43;;;;;;;14.88;7.25;;;;;;;22.91;50.04;99936.84;5097208;28;20039;-65
2024/04/01 07:50:09;;;;;;;108.60;19.77;;;;;;;23.06;49.73;99930.94;5096772;28;20036;-64
2024/04/01 07:52:35;;;;;;;16.48;7.03;;;;;;;23.28;49.67;99931.09;5097356;28;20199;-64
2024/04/01 07:55:01;;;;;;;15.15;6.53;;;;;;;23.31;49.27;99923.34;5095322;28;20292;-65
2024/04/01 07:57:32;;;;;;;15.10;5.85;;;;;;;23.40;48.94;99929.16;5096841;28;20048;-65
2024/04/01 07:59:58;;;;;;;9.05;5.57;;;;;;;23.30;48.36;99916.28;5098696;28;20032;-64
2024/04/01 08:02:24;;;;;;;17.67;6.60;;;;;;;23.50;48.50;99921.25;5097286;28;20047;-64
2024/04/01 08:04:50;;;;;;;16.90;6.72;;;;;;;23.75;47.67;99916.34;5098122;28;20310;-64
2024/04/01 08:07:15;;;;;;;12.73;6.80;;;;;;;23.74;47.49;99911.16;5097987;28;20334;-64
2024/04/01 08:09:41;;;;;;;14.80;6.57;;;;;;;23.83;47.43;99901.59;5097888;28;20222;-64
2024/04/01 08:12:08;;;;;;;19.48;7.40;;;;;;;23.99;47.52;99895.41;5097873;28;20043;-64
2024/04/01 08:14:34;;;;;;;16.42;6.38;;;;;;;24.05;46.47;99899.81;5097920;28;20036;-64
2024/04/01 08:16:59;;;;;;;16.52;6.35;;;;;;;23.98;47.64;99896.47;5097103;28;20103;-64
2024/04/01 08:19:26;;;;;;;9.82;4.65;;;;;;;23.78;43.25;99883.41;5097567;28;20035;-64
2024/04/01 08:21:51;;;;;;;9.95;4.45;;;;;;;23.88;42.60;99886.28;5097743;28;20116;-64
2024/04/01 08:24:17;;;;;;;10.48;3.85;;;;;;;24.04;43.94;99895.47;5097813;28;20044;-64
2024/04/01 08:26:43;;;;;;;12.40;4.65;;;;;;;24.14;43.73;99894.81;5096773;28;20032;-64
2024/04/01 08:29:08;;;;;;;10.30;3.72;;;;;;;24.17;43.11;99897.03;5097350;28;20051;-64
2024/04/01 08:31:35;;;;;;;13.00;3.92;;;;;;;24.24;42.80;99886.84;5096016;28;20046;-64
2024/04/01 08:34:01;;;;;;;9.88;4.13;;;;;;;24.24;40.15;99900.38;5097411;28;20222;-64
2024/04/01 08:36:26;;;;;;;13.82;4.80;;;;;;;24.38;38.95;99900.88;5096827;28;20043;-65
2024/04/01 08:38:52;;;;;;;9.60;3.58;;;;;;;24.31;37.92;99901.06;5096893;28;20427;-65
2024/04/01 08:41:49;;;;;;;14.93;4.40;;;;;;;24.29;39.70;99895.09;5097686;28;20050;-64
2024/04/01 08:44:16;;;;;;;10.95;3.50;;;;;;;24.30;39.03;99893.19;5088940;28;20056;-64
2024/04/01 08:46:48;;;;;;;12.57;4.45;;;;;;;24.43;39.65;99892.84;5097105;28;20169;-64
2024/04/01 08:49:14;;;;;;;11.07;3.67;;;;;;;24.56;39.38;99892.50;5097132;28;20197;-65
2024/04/01 08:51:42;;;;;;;11.18;3.78;;;;;;;24.65;36.80;99884.75;5096953;28;20599;-64
2024/04/01 08:54:09;;;;;;;17.20;5.38;;;;;;;24.66;38.52;99879.09;5096981;28;20058;-64
2024/04/01 08:56:40;;;;;;;11.70;4.18;;;;;;;24.70;38.44;99880.22;5097313;28;20234;-64
2024/04/01 08:59:09;;;;;;;13.52;3.97;;;;;;;24.57;38.33;99872.47;5096233;28;20039;-64
2024/04/01 09:01:35;;;;;;;12.00;3.72;;;;;;;24.49;39.46;99875.59;5096391;28;20074;-64
2024/04/01 09:04:01;;;;;;;6.43;3.53;;;;;;;24.44;39.07;99864.72;5096907;28;20057;-65
2024/04/01 09:06:28;;;;;;;12.15;4.07;;;;;;;24.45;38.88;99866.34;5097170;28;20032;-64
2024/04/01 09:08:54;;;;;;;15.25;4.13;;;;;;;24.56;37.84;99861.88;5097670;28;20314;-64
2024/04/01 09:11:25;;;;;;;13.10;4.53;;;;;;;24.44;39.51;99846.59;5095292;28;20161;-64
2024/04/01 09:13:51;;;;;;;11.90;3.83;;;;;;;24.55;39.13;99852.13;5096769;28;20039;-65
2024/04/01 09:16:25;;;;;;;12.20;4.10;;;;;;;24.57;38.46;99839.16;5096240;28;20049;-64
2024/04/01 09:18:50;;;;;;;11.50;4.90;;;;;;;24.49;39.92;99843.94;5094866;28;20199;-64
2024/04/01 09:21:18;;;;;;;10.98;4.60;;;;;;;24.28;42.49;99835.81;5095617;28;20069;-64
2024/04/01 09:23:44;;;;;;;13.07;3.67;;;;;;;23.96;41.63;99844.50;5095284;28;20214;-64
2024/04/01 09:26:10;;;;;;;11.52;3.83;;;;;;;23.97;41.98;99846.16;5096337;28;20095;-64
2024/04/01 09:28:35;;;;;;;11.60;3.58;;;;;;;24.15;41.80;99845.06;5097065;28;20035;-64
2024/04/01 09:31:01;;;;;;;12.23;4.07;;;;;;;24.25;41.66;99838.97;5099797;28;20036;-65
2024/04/01 09:33:28;;;;;;;12.50;4.53;;;;;;;24.17;41.76;99843.75;5101117;28;20040;-64
2024/04/01 09:35:53;;;;;;;10.68;4.28;;;;;;;24.11;41.29;99836.63;5099431;28;20102;-64
2024/04/01 09:38:19;;;;;;;15.05;4.38;;;;;;;24.29;41.84;99834.72;5100784;28;20044;-64
2024/04/01 09:40:52;;;;;;;15.65;4.45;;;;;;;24.25;41.41;99833.56;5099245;28;20096;-64
2024/04/01 09:43:28;;;;;;;56.90;8.40;;;;;;;24.44;41.85;99827.63;5100759;28;20067;-64
2024/04/01 09:45:54;;;;;;;17.10;4.38;;;;;;;24.52;40.89;99819.06;5099632;28;20040;-64
2024/04/01 09:48:27;;;;;;;15.23;4.38;;;;;;;24.32;42.18;99818.81;5100757;28;20047;-64
2024/04/01 09:50:59;;;;;;;13.95;4.30;;;;;;;24.25;40.97;99806.50;5099850;28;20035;-64
2024/04/01 09:53:27;;;;;;;12.07;4.18;;;;;;;24.00;41.42;99802.38;5099224;28;20047;-64
2024/04/01 09:56:01;;;;;;;19.85;4.70;;;;;;;24.17;41.65;99796.94;5099408;28;20027;-64
2024/04/01 09:58:42;;;;;;;13.38;4.22;;;;;;;24.26;40.56;99802.72;5100127;28;20044;-64
2024/04/01 10:01:45;;;;;;;16.88;3.85;;;;;;;24.05;39.86;99796.22;5099674;28;20065;-63
2024/04/01 10:04:28;;;;;;;14.15;4.28;;;;;;;24.00;40.21;99772.63;5099498;28;20269;-64
2024/04/01 10:07:06;;;;;;;;;;;;;;;24.16;39.25;99792.59;5100200;28;20111;-64
2024/04/01 10:09:50;;;;;;;12.95;4.45;;;;;;;24.23;39.21;99789.69;5101021;28;20198;-63
2024/04/01 10:13:03;;;;;;;16.92;4.13;;;;;;;24.20;38.59;99789.13;5098913;28;20059;-64
2024/04/01 10:15:28;;;;;;;12.88;3.67;;;;;;;24.23;39.41;99789.69;5051673;28;20061;-65
2024/04/01 10:18:05;;;;;;;14.95;4.80;;;;;;;24.22;40.17;99777.25;5098581;28;20048;-63
2024/04/01 10:20:46;;;;;;;17.90;3.70;;;;;;;24.23;38.17;99774.28;5100398;28;20043;-64
2024/04/01 10:23:30;;;;;;;15.27;3.55;;;;;;;24.19;37.11;99776.69;5098386;28;20056;-64
2024/04/01 10:26:14;;;;;;;8.60;3.60;;;;;;;24.34;37.79;99762.56;5099869;28;20044;-64
2024/04/01 10:29:15;;;;;;;15.52;3.28;;;;;;;24.33;36.66;99758.22;5098411;28;20036;-64
2024/04/01 10:32:08;;;;;;;12.90;3.15;;;;;;;24.36;37.45;99754.19;5066074;28;20075;-64
2024/04/01 10:34:50;;;;;;;14.20;2.95;;;;;;;24.39;36.33;99754.50;5099572;28;20036;-63
2024/04/01 10:37:47;;;;;;;17.85;3.65;;;;;;;24.47;34.18;99745.94;5098755;28;20035;-63
2024/04/01 10:40:25;;;;;;;19.73;4.15;;;;;;;24.57;34.75;99739.81;5097745;28;20051;-64
2024/04/01 10:43:27;;;;;;;12.93;3.75;;;;;;;24.60;35.17;99727.66;5097699;28;20110;-64
2024/04/01 10:46:14;;;;;;;16.70;3.95;;;;;;;24.61;35.93;99722.00;5099180;28;20036;-63
2024/04/01 10:49:09;;;;;;;14.40;3.88;;;;;;;24.60;36.38;99720.38;5098223;28;20044;-62
2024/04/01 10:52:08;;;;;;;15.48;4.25;;;;;;;24.57;35.20;99712.75;5071773;28;20235;-63
2024/04/01 10:55:02;;;;;;;12.20;4.32;;;;;;;24.64;36.26;99715.25;5098716;28;20040;-62
2024/04/01 10:57:42;;;;;;;13.95;4.50;;;;;;;24.70;38.32;99709.63;5115927;28;20063;-63
2024/04/01 11:00:35;;;;;;;12.63;3.70;;;;;;;24.76;37.62;99705.09;5098106;28;20712;-63
2024/04/01 11:03:25;;;;;;;12.73;4.57;;;;;;;24.71;36.22;99694.22;5098728;28;20055;-63
2024/04/01 11:06:02;;;;;;;16.60;4.43;;;;;;;24.75;35.69;99692.63;5098614;28;20032;-63
2024/04/01 11:08:36;;;;;;;13.15;4.43;;;;;;;24.83;31.79;99695.69;5098804;28;20123;-65
2024/04/01 11:11:13;;;;;;;11.50;3.55;;;;;;;25.00;33.19;99681.28;5098756;28;20032;-63
2024/04/01 11:13:39;;;;;;;16.67;4.32;;;;;;;24.99;30.85;99682.34;5099018;28;20069;-64
2024/04/01 11:16:06;;;;;;;16.25;4.45;;;;;;;25.07;30.27;99682.69;5095956;28;20069;-63
2024/04/01 11:18:59;;;;;;;15.32;3.67;;;;;;;25.04;31.74;99683.19;5098946;28;20081;-63
2024/04/01 11:21:42;;;;;;;28.45;5.90;;;;;;;25.07;30.56;99673.75;5093157;28;20055;-62
2024/04/01 11:24:27;;;;;;;14.60;5.50;;;;;;;25.08;32.91;99667.25;5089115;28;20292;-63
2024/04/01 11:27:16;;;;;;;18.25;4.28;;;;;;;25.17;32.15;99667.59;5097698;28;20050;-62
2024/04/01 11:29:54;;;;;;;17.20;4.75;;;;;;;25.25;34.44;99661.69;5097288;28;20484;-62
2024/04/01 11:32:22;;;;;;;16.55;5.75;;;;;;;25.25;34.80;99659.78;5097458;28;20107;-63
2024/04/01 11:35:08;;;;;;;16.50;4.70;;;;;;;25.29;35.82;99662.81;5099034;28;20048;-63